createdAt,value
2023-03-07T00:00:29.524Z,95406.22
2023-03-07T00:02:57.692Z,95407.44
2023-03-07T00:05:25.750Z,95407.81
2023-03-07T00:07:53.780Z,95409.25
2023-03-07T00:10:23.169Z,95412.06
2023-03-07T00:12:51.333Z,95415.72
2023-03-07T00:15:19.509Z,95417.50
2023-03-07T00:17:47.560Z,95412.09
2023-03-07T00:20:16.449Z,95413.66
2023-03-07T00:22:46.875Z,95409.44
2023-03-07T00:25:16.386Z,95403.63
2023-03-07T00:27:45.815Z,95401.78
2023-03-07T00:30:14.280Z,95409.22
2023-03-07T00:32:42.421Z,95409.44
2023-03-07T00:35:12.240Z,95391.81
2023-03-07T00:37:40.395Z,95395.41
2023-03-07T00:40:12.760Z,95392.00
2023-03-07T00:42:40.770Z,95385.16
2023-03-07T00:45:13.520Z,95383.16
2023-03-07T00:47:41.559Z,95374.34
2023-03-07T00:50:11.123Z,95372.97
2023-03-07T00:52:39.345Z,95370.16
2023-03-07T00:55:09.259Z,95367.34
2023-03-07T00:57:37.484Z,95369.53
2023-03-07T01:00:07.390Z,95371.38
2023-03-07T01:02:36.811Z,95370.31
2023-03-07T01:05:06.379Z,95372.72
2023-03-07T01:07:36.067Z,95368.53
2023-03-07T01:10:04.530Z,95371.34
2023-03-07T01:12:32.616Z,95367.75
2023-03-07T01:15:00.811Z,95375.56
2023-03-07T01:17:29.038Z,95369.78
2023-03-07T01:19:58.543Z,95360.94
2023-03-07T01:22:26.788Z,95359.94
2023-03-07T01:24:55.037Z,95365.34
2023-03-07T01:27:24.604Z,95363.09
2023-03-07T01:29:53.030Z,95364.28
2023-03-07T01:32:21.173Z,95367.31
2023-03-07T01:34:49.159Z,95357.06
2023-03-07T01:37:19.152Z,95357.69
2023-03-07T01:39:47.780Z,95349.88
2023-03-07T01:42:18.278Z,95347.66
2023-03-07T01:45:27.435Z,95342.88
2023-03-07T01:47:55.619Z,95345.25
2023-03-07T01:50:23.983Z,95344.06
2023-03-07T01:52:57.761Z,95345.81
2023-03-07T01:55:30.698Z,95344.06
2023-03-07T01:58:09.597Z,95337.81
2023-03-07T02:00:39.216Z,95333.81
2023-03-07T02:03:13.982Z,95330.81
2023-03-07T02:05:50.947Z,95335.63
2023-03-07T02:08:25.385Z,95332.00
2023-03-07T02:10:53.614Z,95327.97
2023-03-07T02:13:22.177Z,95333.78
2023-03-07T02:15:51.067Z,95333.78
2023-03-07T02:18:26.169Z,95332.16
2023-03-07T02:21:02.933Z,95332.16
2023-03-07T02:23:41.556Z,95326.94
2023-03-07T02:26:14.719Z,95324.66
2023-03-07T02:28:46.907Z,95324.50
2023-03-07T02:31:15.921Z,95314.28
2023-03-07T02:33:44.167Z,95309.03
2023-03-07T02:36:18.229Z,95305.06
2023-03-07T02:38:57.935Z,95296.97
2023-03-07T02:41:32.951Z,95298.56
2023-03-07T02:44:30.862Z,95288.63
2023-03-07T02:46:59.157Z,95296.03
2023-03-07T02:49:29.220Z,95295.63
2023-03-07T02:52:01.118Z,95291.03
2023-03-07T02:54:30.431Z,95291.03
2023-03-07T02:56:59.205Z,95297.06
2023-03-07T02:59:28.615Z,95286.41
2023-03-07T03:01:57.554Z,95286.69
2023-03-07T03:04:26.059Z,95284.06
2023-03-07T03:06:54.125Z,95284.88
2023-03-07T03:09:22.605Z,95279.81
2023-03-07T03:11:50.658Z,95278.72
2023-03-07T03:14:21.992Z,95275.53
2023-03-07T03:16:53.502Z,95277.47
2023-03-07T03:19:22.532Z,95284.47
2023-03-07T03:21:51.020Z,95284.81
2023-03-07T03:24:19.916Z,95283.44
2023-03-07T03:26:49.171Z,95284.06
2023-03-07T03:29:19.448Z,95279.50
2023-03-07T03:31:47.586Z,95288.94
2023-03-07T03:34:17.074Z,95275.28
2023-03-07T03:36:45.184Z,95277.00
2023-03-07T03:39:14.596Z,95269.38
2023-03-07T03:41:47.474Z,95276.47
2023-03-07T03:44:16.914Z,95270.69
2023-03-07T03:46:45.128Z,95281.84
2023-03-07T03:49:14.272Z,95274.78
2023-03-07T03:51:44.910Z,95269.75
2023-03-07T03:54:13.196Z,95269.69
2023-03-07T03:56:41.795Z,95263.66
2023-03-07T03:59:09.955Z,95268.16
2023-03-07T04:01:38.046Z,95265.63
2023-03-07T04:04:06.612Z,95262.00
2023-03-07T04:06:36.428Z,95255.78
2023-03-07T04:09:06.264Z,95260.44
2023-03-07T04:11:34.516Z,95264.03
2023-03-07T04:14:02.951Z,95262.34
2023-03-07T04:16:31.919Z,95257.38
2023-03-07T04:19:00.809Z,95253.13
2023-03-07T04:21:28.990Z,95253.94
2023-03-07T04:23:59.418Z,95245.75
2023-03-07T04:26:32.518Z,95245.19
2023-03-07T04:29:00.759Z,95249.13
2023-03-07T04:31:32.871Z,95245.88
2023-03-07T04:34:03.567Z,95240.53
2023-03-07T04:36:32.254Z,95239.97
2023-03-07T04:39:00.284Z,95240.91
2023-03-07T04:41:28.926Z,95238.56
2023-03-07T04:44:02.870Z,95233.13
2023-03-07T04:46:31.190Z,95240.22
2023-03-07T04:48:59.743Z,95233.56
2023-03-07T04:51:28.094Z,95237.31
2023-03-07T04:53:56.187Z,95229.78
2023-03-07T04:56:24.488Z,95229.72
2023-03-07T04:58:52.746Z,95235.59
2023-03-07T05:01:22.228Z,95235.25
2023-03-07T05:03:50.505Z,95230.94
2023-03-07T05:06:20.354Z,95231.56
2023-03-07T05:08:50.871Z,95224.56
2023-03-07T05:11:19.347Z,95225.38
2023-03-07T05:13:47.652Z,95224.94
2023-03-07T05:16:19.413Z,95223.66
2023-03-07T05:18:50.476Z,95220.50
2023-03-07T05:21:19.147Z,95214.31
2023-03-07T05:23:47.226Z,95205.88
2023-03-07T05:26:15.369Z,95200.28
2023-03-07T05:28:43.731Z,95205.06
2023-03-07T05:31:11.775Z,95211.50
2023-03-07T05:33:42.632Z,95212.88
2023-03-07T05:36:12.914Z,95214.59
2023-03-07T05:38:41.298Z,95211.13
2023-03-07T05:41:09.631Z,95218.56
2023-03-07T05:43:37.872Z,95212.47
2023-03-07T05:46:06.532Z,95214.88
2023-03-07T05:48:35.192Z,95214.66
2023-03-07T05:51:03.958Z,95218.56
2023-03-07T05:53:33.671Z,95213.06
2023-03-07T05:56:02.494Z,95212.31
2023-03-07T05:58:32.076Z,95211.00
2023-03-07T06:01:02.991Z,95208.78
2023-03-07T06:03:32.103Z,95202.75
2023-03-07T06:06:00.429Z,95201.53
2023-03-07T06:08:29.362Z,95189.88
2023-03-07T06:10:59.019Z,95196.31
2023-03-07T06:13:28.072Z,95196.09
2023-03-07T06:15:56.865Z,95189.94
2023-03-07T06:18:27.223Z,95188.88
2023-03-07T06:20:58.698Z,95196.97
2023-03-07T06:23:29.596Z,95194.16
2023-03-07T06:26:00.384Z,95189.09
2023-03-07T06:28:30.269Z,95186.47
2023-03-07T06:30:59.867Z,95190.69
2023-03-07T06:33:28.077Z,95195.00
2023-03-07T06:35:56.877Z,95200.38
2023-03-07T06:38:25.206Z,95197.75
2023-03-07T06:40:57.248Z,95200.31
2023-03-07T06:43:28.101Z,95191.69
2023-03-07T06:45:56.966Z,95207.63
2023-03-07T06:48:28.047Z,95206.50
2023-03-07T06:50:56.422Z,95210.53
2023-03-07T06:53:24.603Z,95202.50
2023-03-07T06:55:53.576Z,95212.53
2023-03-07T06:58:21.749Z,95204.47
2023-03-07T07:00:51.485Z,95200.91
2023-03-07T07:03:21.428Z,95208.13
2023-03-07T07:05:49.607Z,95202.09
2023-03-07T07:08:17.981Z,95197.28
2023-03-07T07:10:46.110Z,95196.06
2023-03-07T07:13:15.076Z,95195.97
2023-03-07T07:15:43.241Z,95198.78
2023-03-07T07:18:15.007Z,95209.72
2023-03-07T07:20:43.850Z,95199.47
2023-03-07T07:23:13.425Z,95205.44
2023-03-07T07:25:41.461Z,95192.53
2023-03-07T07:28:12.301Z,95204.34
2023-03-07T07:30:45.132Z,95204.00
2023-03-07T07:33:17.090Z,95196.88
2023-03-07T07:35:48.454Z,95199.47
2023-03-07T07:38:17.030Z,95195.41
2023-03-07T07:40:45.954Z,95201.53
2023-03-07T07:43:18.188Z,95198.28
2023-03-07T07:45:50.858Z,95203.00
2023-03-07T07:48:22.924Z,95196.41
2023-03-07T07:50:55.982Z,95194.00
2023-03-07T07:53:24.366Z,95194.41
2023-03-07T07:55:52.451Z,95192.91
2023-03-07T07:58:20.509Z,95194.06
2023-03-07T08:00:50.045Z,95191.66
2023-03-07T08:03:18.116Z,95190.44
2023-03-07T08:05:49.131Z,95180.91
2023-03-07T08:08:17.820Z,95188.53
2023-03-07T08:10:48.590Z,95191.44
2023-03-07T08:13:18.623Z,95186.78
2023-03-07T08:15:46.778Z,95186.56
2023-03-07T08:18:14.913Z,95181.91
2023-03-07T08:20:43.009Z,95166.94
2023-03-07T08:23:12.419Z,95168.53
2023-03-07T08:25:40.800Z,95173.75
2023-03-07T08:28:08.949Z,95166.50
2023-03-07T08:30:38.183Z,95168.13
2023-03-07T08:33:06.235Z,95169.13
2023-03-07T08:35:34.411Z,95164.22
2023-03-07T08:38:02.530Z,95160.84
2023-03-07T08:40:32.564Z,95157.91
2023-03-07T08:43:01.995Z,95164.72
2023-03-07T08:45:30.162Z,95164.50
2023-03-07T08:47:58.650Z,95156.09
2023-03-07T08:50:29.287Z,95157.34
2023-03-07T08:52:57.992Z,95160.03
2023-03-07T08:55:26.294Z,95164.06
2023-03-07T08:57:55.926Z,95165.06
2023-03-07T09:00:25.135Z,95159.22
2023-03-07T09:02:54.276Z,95159.41
2023-03-07T09:05:22.321Z,95161.13
2023-03-07T09:07:50.368Z,95162.03
2023-03-07T09:10:20.929Z,95161.06
2023-03-07T09:12:49.898Z,95154.75
2023-03-07T09:15:19.561Z,95153.06
2023-03-07T09:17:47.661Z,95152.47
2023-03-07T09:20:17.199Z,95142.25
2023-03-07T09:22:46.713Z,95147.38
2023-03-07T09:25:15.523Z,95148.63
2023-03-07T09:27:45.518Z,95146.44
2023-03-07T09:30:15.185Z,95141.91
2023-03-07T09:32:45.137Z,95143.06
2023-03-07T09:35:13.337Z,95140.13
2023-03-07T09:37:41.713Z,95140.06
2023-03-07T09:40:17.299Z,95146.53
2023-03-07T09:42:57.901Z,95141.53
2023-03-07T09:45:42.351Z,95142.88
2023-03-07T09:49:03.574Z,95145.75
2023-03-07T09:51:40.180Z,95132.53
2023-03-07T09:54:13.700Z,95134.28
2023-03-07T09:56:47.309Z,95132.53
2023-03-07T09:59:23.846Z,95129.97
2023-03-07T10:02:00.114Z,95133.63
2023-03-07T10:04:39.910Z,95131.94
2023-03-07T10:07:12.562Z,95127.28
2023-03-07T10:09:40.662Z,95124.03
2023-03-07T10:12:31.702Z,95127.75
2023-03-07T10:15:17.834Z,95119.03
2023-03-07T10:18:07.779Z,95120.53
2023-03-07T10:20:46.587Z,95125.75
2023-03-07T10:23:41.182Z,95127.41
2023-03-07T10:26:13.368Z,95115.63
2023-03-07T10:28:44.234Z,95102.34
2023-03-07T10:31:19.016Z,95117.59
2023-03-07T10:33:50.216Z,95117.69
2023-03-07T10:36:23.091Z,95110.09
2023-03-07T10:39:04.333Z,95110.19
2023-03-07T10:41:32.614Z,95109.88
2023-03-07T10:44:00.809Z,95109.69
2023-03-07T10:46:31.506Z,95107.56
2023-03-07T10:49:10.674Z,95111.31
2023-03-07T10:51:54.185Z,95093.44
2023-03-07T10:54:30.165Z,95100.69
2023-03-07T10:57:09.259Z,95093.91
2023-03-07T10:59:39.480Z,95094.78
2023-03-07T11:02:37.174Z,95104.72
2023-03-07T11:05:26.506Z,95100.34
2023-03-07T11:07:56.040Z,95104.41
2023-03-07T11:10:35.490Z,95092.22
2023-03-07T11:13:14.886Z,95104.50
2023-03-07T11:15:44.890Z,95090.41
2023-03-07T11:18:29.741Z,95094.09
2023-03-07T11:20:58.978Z,95085.78
2023-03-07T11:23:30.769Z,95088.22
2023-03-07T11:26:16.271Z,95081.19
2023-03-07T11:28:44.772Z,95090.19
2023-03-07T11:31:21.337Z,95093.50
2023-03-07T11:33:59.479Z,95083.22
2023-03-07T11:36:33.406Z,95079.41
2023-03-07T11:39:15.259Z,95084.47
2023-03-07T11:41:49.360Z,95081.84
2023-03-07T11:44:30.265Z,95074.81
2023-03-07T11:47:21.274Z,95083.66
2023-03-07T11:50:09.173Z,95076.06
2023-03-07T11:53:06.250Z,95088.75
2023-03-07T11:55:42.737Z,95076.59
2023-03-07T11:58:40.429Z,95076.59
2023-03-07T12:01:21.853Z,95069.28
2023-03-07T12:04:23.457Z,95060.75
2023-03-07T12:07:02.979Z,95056.22
2023-03-07T12:09:42.255Z,95043.88
2023-03-07T12:12:32.395Z,95055.59
2023-03-07T12:15:18.671Z,95047.53
2023-03-07T12:17:56.246Z,95045.56
2023-03-07T12:20:40.826Z,95039.31
2023-03-07T12:23:17.192Z,95038.75
2023-03-07T12:25:49.543Z,95020.44
2023-03-07T12:28:28.617Z,95025.22
2023-03-07T12:31:09.295Z,95024.69
2023-03-07T12:33:54.886Z,95005.13
2023-03-07T12:36:31.449Z,95002.38
2023-03-07T12:39:06.618Z,94985.00
2023-03-07T12:41:48.972Z,94989.19
2023-03-07T12:44:35.388Z,94984.59
2023-03-07T12:47:15.762Z,94980.31
2023-03-07T12:49:54.350Z,94978.00
2023-03-07T12:52:35.801Z,94960.38
2023-03-07T12:55:17.585Z,94959.53
2023-03-07T12:57:52.454Z,94947.38
2023-03-07T13:00:23.531Z,94952.56
2023-03-07T13:03:01.157Z,94951.53
2023-03-07T13:05:30.936Z,94954.28
2023-03-07T13:07:59.451Z,94947.13
2023-03-07T13:10:28.160Z,94949.28
2023-03-07T13:12:56.245Z,94953.06
2023-03-07T13:16:07.363Z,94945.84
2023-03-07T13:18:35.395Z,94953.56
2023-03-07T13:21:32.524Z,94945.47
2023-03-07T13:24:35.862Z,94950.13
2023-03-07T13:27:05.674Z,94949.00
2023-03-07T13:30:19.171Z,94956.69
2023-03-07T13:33:00.859Z,94958.28
2023-03-07T13:35:57.767Z,94956.00
2023-03-07T13:38:35.838Z,94951.13
2023-03-07T13:41:05.328Z,94949.84
2023-03-07T13:44:02.646Z,94945.81
2023-03-07T13:47:02.528Z,94951.75
2023-03-07T13:49:47.979Z,94956.16
2023-03-07T13:52:49.980Z,94961.78
2023-03-07T13:55:46.424Z,94957.28
2023-03-07T13:58:26.024Z,94956.47
2023-03-07T14:00:58.847Z,94957.72
2023-03-07T14:03:32.943Z,94955.47
2023-03-07T14:06:10.199Z,94958.81
2023-03-07T14:08:39.130Z,94970.06
2023-03-07T14:11:15.734Z,94964.91
2023-03-07T14:14:26.240Z,94973.81
2023-03-07T14:17:17.751Z,94967.63
2023-03-07T14:19:59.944Z,94967.28
2023-03-07T14:22:56.144Z,94969.44
2023-03-07T14:25:44.248Z,94965.38
2023-03-07T14:28:26.845Z,94967.94
2023-03-07T14:30:58.843Z,94974.28
2023-03-07T14:33:35.983Z,94972.47
2023-03-07T14:36:16.074Z,94974.44
2023-03-07T14:38:48.764Z,94962.78
2023-03-07T14:41:36.582Z,94963.72
2023-03-07T14:44:27.935Z,94970.38
2023-03-07T14:47:10.782Z,94968.28
2023-03-07T14:49:51.905Z,94973.31
2023-03-07T14:52:30.904Z,94962.53
2023-03-07T14:55:03.850Z,94975.41
2023-03-07T14:57:35.690Z,94965.06
2023-03-07T15:00:11.987Z,94963.94
2023-03-07T15:02:48.562Z,94964.34
2023-03-07T15:05:18.683Z,94961.84
2023-03-07T15:07:48.028Z,94963.06
2023-03-07T15:10:20.941Z,94953.31
2023-03-07T15:12:54.247Z,94964.69
2023-03-07T15:15:31.285Z,94961.72
2023-03-07T15:18:06.886Z,94964.94
2023-03-07T15:20:35.386Z,94965.22
2023-03-07T15:23:07.576Z,94953.94
2023-03-07T15:25:39.123Z,94956.81
2023-03-07T15:28:17.845Z,94945.84
2023-03-07T15:30:52.880Z,94956.31
2023-03-07T15:33:26.035Z,94966.66
2023-03-07T15:36:27.561Z,94965.66
2023-03-07T15:39:27.616Z,94954.13
2023-03-07T15:42:06.801Z,94959.66
2023-03-07T15:44:36.397Z,94965.53
2023-03-07T15:47:15.061Z,94957.94
2023-03-07T15:49:47.263Z,94964.91
2023-03-07T15:52:28.378Z,94966.28
2023-03-07T15:54:59.352Z,94960.13
2023-03-07T15:57:33.765Z,94948.09
2023-03-07T16:00:06.890Z,94956.53
2023-03-07T16:02:43.536Z,94961.25
2023-03-07T16:05:36.762Z,94963.22
2023-03-07T16:08:14.095Z,94963.41
2023-03-07T16:10:52.120Z,94962.88
2023-03-07T16:13:25.894Z,94961.19
2023-03-07T16:16:03.121Z,94973.78
2023-03-07T16:18:32.930Z,94966.19
2023-03-07T16:21:00.994Z,94975.72
2023-03-07T16:23:31.404Z,94970.03
2023-03-07T16:26:02.769Z,94969.34
2023-03-07T16:28:32.949Z,94974.47
2023-03-07T16:31:01.081Z,94967.81
2023-03-07T16:33:29.111Z,94970.88
2023-03-07T16:35:57.277Z,94973.06
2023-03-07T16:38:25.454Z,94973.97
2023-03-07T16:40:53.553Z,94969.63
2023-03-07T16:43:35.079Z,94974.34
2023-03-07T16:46:05.793Z,94987.00
2023-03-07T16:48:38.893Z,94989.28
2023-03-07T16:51:10.073Z,94984.75
2023-03-07T16:53:38.207Z,94987.00
2023-03-07T16:56:07.027Z,94987.91
2023-03-07T16:58:39.795Z,94997.56
2023-03-07T17:01:08.029Z,94998.38
2023-03-07T17:03:36.194Z,94992.81
2023-03-07T17:06:04.607Z,94999.09
2023-03-07T17:08:32.696Z,94987.72
2023-03-07T17:11:00.785Z,94987.81
2023-03-07T17:13:29.712Z,94998.50
2023-03-07T17:15:59.705Z,94999.66
2023-03-07T17:18:33.806Z,94993.63
2023-03-07T17:21:01.881Z,95005.31
2023-03-07T17:23:29.937Z,95011.94
2023-03-07T17:25:58.121Z,95017.75
2023-03-07T17:28:26.711Z,95008.53
2023-03-07T17:30:54.897Z,95014.66
2023-03-07T17:33:26.228Z,95027.41
2023-03-07T17:35:57.063Z,95022.28
2023-03-07T17:38:25.190Z,95019.66
2023-03-07T17:40:55.987Z,95026.03
2023-03-07T17:43:24.492Z,95024.91
2023-03-07T17:45:52.564Z,95019.34
2023-03-07T17:48:20.713Z,95030.34
2023-03-07T17:50:50.113Z,95025.47
2023-03-07T17:53:18.255Z,95036.63
2023-03-07T17:55:46.375Z,95038.97
2023-03-07T17:58:14.370Z,95043.66
2023-03-07T18:00:42.447Z,95049.59
2023-03-07T18:03:14.572Z,95049.81
2023-03-07T18:05:42.758Z,95044.44
2023-03-07T18:08:12.591Z,95052.50
2023-03-07T18:10:40.633Z,95054.88
2023-03-07T18:13:14.882Z,95053.53
2023-03-07T18:15:46.983Z,95058.41
2023-03-07T18:18:16.249Z,95053.47
2023-03-07T18:20:44.560Z,95050.88
2023-03-07T18:23:13.998Z,95046.88
2023-03-07T18:25:42.099Z,95037.78
2023-03-07T18:28:10.311Z,95048.69
2023-03-07T18:30:38.355Z,95050.16
2023-03-07T18:33:06.390Z,95059.59
2023-03-07T18:35:37.899Z,95061.13
2023-03-07T18:38:05.984Z,95066.59
2023-03-07T18:40:35.372Z,95074.09
2023-03-07T18:43:03.514Z,95077.78
2023-03-07T18:45:31.952Z,95067.09
2023-03-07T18:48:00.675Z,95073.81
2023-03-07T18:50:29.642Z,95084.38
2023-03-07T18:52:57.839Z,95091.88
2023-03-07T18:55:26.179Z,95086.84
2023-03-07T18:57:55.658Z,95081.97
2023-03-07T19:00:24.557Z,95087.78
2023-03-07T19:02:52.575Z,95088.13
2023-03-07T19:05:20.777Z,95083.44
2023-03-07T19:07:48.798Z,95086.97
2023-03-07T19:10:17.324Z,95090.72
2023-03-07T19:12:45.694Z,95087.66
2023-03-07T19:15:15.123Z,95091.28
2023-03-07T19:17:43.149Z,95091.97
2023-03-07T19:20:13.374Z,95088.97
2023-03-07T19:22:41.983Z,95085.94
2023-03-07T19:25:10.919Z,95084.38
2023-03-07T19:27:39.019Z,95095.09
2023-03-07T19:30:11.244Z,95092.63
2023-03-07T19:32:40.757Z,95110.59
2023-03-07T19:35:09.694Z,95101.69
2023-03-07T19:37:37.911Z,95104.81
2023-03-07T19:40:11.458Z,95103.50
2023-03-07T19:42:39.546Z,95118.66
2023-03-07T19:45:09.374Z,95118.66
2023-03-07T19:47:37.462Z,95127.34
2023-03-07T19:50:31.523Z,95139.59
2023-03-07T19:53:00.080Z,95142.41
2023-03-07T19:55:31.157Z,95139.97
2023-03-07T19:57:59.566Z,95131.22
2023-03-07T20:00:27.847Z,95136.44
2023-03-07T20:02:55.826Z,95135.88
2023-03-07T20:05:24.747Z,95127.94
2023-03-07T20:07:54.150Z,95129.59
2023-03-07T20:10:22.742Z,95125.41
2023-03-07T20:12:52.896Z,95125.88
2023-03-07T20:15:21.744Z,95121.81
2023-03-07T20:17:49.962Z,95123.50
2023-03-07T20:20:19.008Z,95113.13
2023-03-07T20:22:47.115Z,95115.53
2023-03-07T20:25:16.773Z,95113.13
2023-03-07T20:27:44.945Z,95112.91
2023-03-07T20:30:14.286Z,95123.50
2023-03-07T20:32:42.501Z,95128.94
2023-03-07T20:35:11.386Z,95131.22
2023-03-07T20:37:39.930Z,95135.50
2023-03-07T20:40:10.312Z,95125.06
2023-03-07T20:42:39.805Z,95132.38
2023-03-07T20:45:09.196Z,95129.66
2023-03-07T20:47:38.509Z,95133.25
2023-03-07T20:50:07.971Z,95147.56
2023-03-07T20:52:37.248Z,95150.69
2023-03-07T20:55:06.554Z,95155.97
2023-03-07T20:57:34.619Z,95151.97
2023-03-07T21:00:05.771Z,95157.06
2023-03-07T21:02:36.258Z,95149.22
2023-03-07T21:05:30.071Z,95142.25
2023-03-07T21:07:58.146Z,95143.06
2023-03-07T21:10:26.196Z,95132.44
2023-03-07T21:12:54.267Z,95134.81
2023-03-07T21:15:23.708Z,95137.84
2023-03-07T21:17:52.776Z,95140.25
2023-03-07T21:20:22.736Z,95135.81
2023-03-07T21:22:50.808Z,95137.84
2023-03-07T21:25:18.907Z,95132.19
2023-03-07T21:27:47.131Z,95138.34
2023-03-07T21:30:15.501Z,95148.03
2023-03-07T21:32:45.055Z,95154.50
2023-03-07T21:35:13.770Z,95158.13
2023-03-07T21:37:41.816Z,95159.78
2023-03-07T21:40:12.094Z,95167.66
2023-03-07T21:42:40.253Z,95159.78
2023-03-07T21:45:10.792Z,95167.56
2023-03-07T21:47:39.171Z,95171.31
2023-03-07T21:50:10.437Z,95171.19
2023-03-07T21:52:38.482Z,95168.13
2023-03-07T21:55:08.194Z,95169.63
2023-03-07T21:57:36.838Z,95178.00
2023-03-07T22:00:08.351Z,95174.22
2023-03-07T22:02:37.388Z,95182.84
2023-03-07T22:05:06.341Z,95188.16
2023-03-07T22:07:35.806Z,95187.50
2023-03-07T22:10:03.934Z,95189.38
2023-03-07T22:12:32.814Z,95187.44
2023-03-07T22:15:00.949Z,95192.66
2023-03-07T22:17:29.210Z,95180.28
2023-03-07T22:19:57.240Z,95178.22
2023-03-07T22:22:25.282Z,95188.56
2023-03-07T22:24:54.670Z,95190.38
2023-03-07T22:27:22.834Z,95195.84
2023-03-07T22:29:50.950Z,95195.28
2023-03-07T22:32:19.054Z,95197.28
2023-03-07T22:34:47.129Z,95198.97
2023-03-07T22:37:15.343Z,95191.75
2023-03-07T22:39:43.401Z,95206.44
2023-03-07T22:42:12.792Z,95194.13
2023-03-07T22:44:40.887Z,95194.13
2023-03-07T22:47:09.250Z,95194.97
2023-03-07T22:49:37.316Z,95194.56
2023-03-07T22:52:06.047Z,95176.97
2023-03-07T22:54:39.088Z,95183.06
2023-03-07T22:57:07.266Z,95195.56
2023-03-07T22:59:36.829Z,95187.94
2023-03-07T23:02:04.947Z,95185.56
2023-03-07T23:04:33.061Z,95179.56
2023-03-07T23:07:01.346Z,95194.56
2023-03-07T23:09:29.384Z,95199.41
2023-03-07T23:11:57.437Z,95198.09
2023-03-07T23:14:25.535Z,95206.59
2023-03-07T23:16:55.085Z,95198.50
2023-03-07T23:19:23.129Z,95206.63
2023-03-07T23:21:51.174Z,95207.94
2023-03-07T23:24:19.253Z,95207.19
2023-03-07T23:26:47.654Z,95203.06
2023-03-07T23:29:15.996Z,95200.09
2023-03-07T23:31:45.201Z,95198.63
2023-03-07T23:34:18.942Z,95202.06
2023-03-07T23:36:47.748Z,95203.78
2023-03-07T23:39:17.453Z,95208.22
2023-03-07T23:41:46.183Z,95221.06
2023-03-07T23:44:14.442Z,95212.44
2023-03-07T23:46:42.499Z,95213.44
2023-03-07T23:49:11.263Z,95207.00
2023-03-07T23:51:40.637Z,95209.88
2023-03-07T23:54:09.024Z,95224.91
2023-03-07T23:56:37.068Z,95220.34
2023-03-07T23:59:05.284Z,95221.06
